createdAt,value
2023-02-19T00:01:07.576Z,15.60
2023-02-19T00:03:35.732Z,15.58
2023-02-19T00:06:03.778Z,14.98
2023-02-19T00:08:31.948Z,15.88
2023-02-19T00:11:03.268Z,15.10
2023-02-19T00:13:30.982Z,14.55
2023-02-19T00:15:58.863Z,14.84
2023-02-19T00:18:27.943Z,15.51
2023-02-19T00:20:57.716Z,14.83
2023-02-19T00:23:25.371Z,14.45
2023-02-19T00:25:53.060Z,13.07
2023-02-19T00:28:20.718Z,13.20
2023-02-19T00:30:48.352Z,13.85
2023-02-19T00:33:16.609Z,13.58
2023-02-19T00:35:45.752Z,13.86
2023-02-19T00:38:13.437Z,14.71
2023-02-19T00:40:41.085Z,14.03
2023-02-19T00:43:08.822Z,14.28
2023-02-19T00:45:36.426Z,14.32
2023-02-19T00:48:04.180Z,13.30
2023-02-19T00:50:31.854Z,14.66
2023-02-19T00:53:00.933Z,14.37
2023-02-19T00:55:28.708Z,14.38
2023-02-19T00:57:56.313Z,13.58
2023-02-19T01:00:24.009Z,14.37
2023-02-19T01:02:51.721Z,14.44
2023-02-19T01:05:19.364Z,14.27
2023-02-19T01:07:47.022Z,14.94
2023-02-19T01:10:15.970Z,13.24
2023-02-19T01:12:43.588Z,13.83
2023-02-19T01:15:11.316Z,13.99
2023-02-19T01:17:38.970Z,13.92
2023-02-19T01:20:07.133Z,14.26
2023-02-19T01:22:34.782Z,12.71
2023-02-19T01:25:02.494Z,13.77
2023-02-19T01:27:31.515Z,13.44
2023-02-19T01:29:59.255Z,12.54
2023-02-19T01:32:26.919Z,14.07
2023-02-19T01:34:54.536Z,13.97
2023-02-19T01:37:22.250Z,13.99
2023-02-19T01:39:49.842Z,14.60
2023-02-19T01:42:17.859Z,14.67
2023-02-19T01:45:04.054Z,13.24
2023-02-19T01:47:33.123Z,12.73
2023-02-19T01:50:00.721Z,13.87
2023-02-19T01:52:28.817Z,13.74
2023-02-19T01:54:56.443Z,12.49
2023-02-19T01:57:24.895Z,11.88
2023-02-19T01:59:54.867Z,11.70
2023-02-19T02:02:23.755Z,13.57
2023-02-19T02:04:52.869Z,12.47
2023-02-19T02:07:37.934Z,12.50
2023-02-19T02:10:23.912Z,11.93
2023-02-19T02:12:52.854Z,13.16
2023-02-19T02:15:22.234Z,13.56
2023-02-19T02:17:52.211Z,14.27
2023-02-19T02:20:34.599Z,12.96
2023-02-19T02:23:04.715Z,12.88
2023-02-19T02:25:49.012Z,13.85
2023-02-19T02:28:24.290Z,11.63
2023-02-19T02:30:55.313Z,12.61
2023-02-19T02:33:27.958Z,11.75
2023-02-19T02:35:57.763Z,10.52
2023-02-19T02:38:26.378Z,12.85
2023-02-19T02:40:54.999Z,12.73
2023-02-19T02:43:23.174Z,11.96
2023-02-19T02:45:51.927Z,12.13
2023-02-19T02:48:30.997Z,11.26
2023-02-19T02:51:00.303Z,12.35
2023-02-19T02:53:49.536Z,12.55
2023-02-19T02:56:17.522Z,11.43
2023-02-19T02:58:45.219Z,12.21
2023-02-19T03:01:30.996Z,11.74
2023-02-19T03:04:01.404Z,13.43
2023-02-19T03:06:30.005Z,13.03
2023-02-19T03:08:59.442Z,12.44
2023-02-19T03:11:44.614Z,12.83
2023-02-19T03:14:31.476Z,11.71
2023-02-19T03:17:17.858Z,12.43
2023-02-19T03:19:49.590Z,12.16
2023-02-19T03:22:19.907Z,10.86
2023-02-19T03:25:07.700Z,11.46
2023-02-19T03:27:35.471Z,12.50
2023-02-19T03:30:04.595Z,11.06
2023-02-19T03:32:33.639Z,12.03
2023-02-19T03:35:02.949Z,11.40
2023-02-19T03:37:31.707Z,10.53
2023-02-19T03:40:01.061Z,10.69
2023-02-19T03:42:32.430Z,9.92
2023-02-19T03:45:03.951Z,10.93
2023-02-19T03:47:34.710Z,11.48
2023-02-19T03:50:05.845Z,9.85
2023-02-19T03:52:37.298Z,9.65
2023-02-19T03:55:06.657Z,9.43
2023-02-19T03:57:35.810Z,9.88
2023-02-19T04:00:05.452Z,9.68
2023-02-19T04:02:40.659Z,10.59
2023-02-19T04:05:13.148Z,10.63
2023-02-19T04:07:42.590Z,9.63
2023-02-19T04:10:10.907Z,9.55
2023-02-19T04:12:45.760Z,9.65
2023-02-19T04:15:13.817Z,9.79
2023-02-19T04:17:43.944Z,9.23
2023-02-19T04:20:12.996Z,8.36
2023-02-19T04:22:41.047Z,9.48
2023-02-19T04:25:08.957Z,9.53
2023-02-19T04:27:37.088Z,9.85
2023-02-19T04:30:05.141Z,8.24
2023-02-19T04:32:32.844Z,8.52
2023-02-19T04:35:00.467Z,8.37
2023-02-19T04:37:29.464Z,9.36
2023-02-19T04:39:57.130Z,9.59
2023-02-19T04:42:24.819Z,11.01
2023-02-19T04:44:52.386Z,12.52
2023-02-19T04:47:20.091Z,9.62
2023-02-19T04:49:47.726Z,10.71
2023-02-19T04:52:15.392Z,11.35
2023-02-19T04:54:44.339Z,10.68
2023-02-19T04:57:11.947Z,11.72
2023-02-19T04:59:39.550Z,10.94
2023-02-19T05:02:07.163Z,10.87
2023-02-19T05:04:35.003Z,9.44
2023-02-19T05:07:02.710Z,10.36
2023-02-19T05:09:30.341Z,9.70
2023-02-19T05:11:59.379Z,10.49
2023-02-19T05:14:27.005Z,10.70
2023-02-19T05:16:54.646Z,10.58
2023-02-19T05:19:22.231Z,10.84
2023-02-19T05:21:49.891Z,10.63
2023-02-19T05:24:17.604Z,10.34
2023-02-19T05:26:45.602Z,10.19
2023-02-19T05:29:14.649Z,9.59
2023-02-19T05:31:42.536Z,10.13
2023-02-19T05:34:10.277Z,9.10
2023-02-19T05:36:38.159Z,8.72
2023-02-19T05:39:06.191Z,9.86
2023-02-19T05:41:33.839Z,10.93
2023-02-19T05:44:01.474Z,10.29
2023-02-19T05:46:30.828Z,9.79
2023-02-19T05:48:59.147Z,9.46
2023-02-19T05:51:27.057Z,9.45
2023-02-19T05:53:54.670Z,10.18
2023-02-19T05:56:26.004Z,10.30
2023-02-19T05:58:54.373Z,8.76
2023-02-19T06:01:22.803Z,10.66
2023-02-19T06:03:51.996Z,9.14
2023-02-19T06:06:19.824Z,9.90
2023-02-19T06:08:47.487Z,9.34
2023-02-19T06:11:15.107Z,10.56
2023-02-19T06:13:42.694Z,10.69
2023-02-19T06:16:10.658Z,9.65
2023-02-19T06:18:40.312Z,9.25
2023-02-19T06:21:10.144Z,10.52
2023-02-19T06:23:38.190Z,9.94
2023-02-19T06:26:07.049Z,11.33
2023-02-19T06:28:34.672Z,11.08
2023-02-19T06:31:02.412Z,12.02
2023-02-19T06:33:30.289Z,13.19
2023-02-19T06:35:59.108Z,12.22
2023-02-19T06:38:28.322Z,12.28
2023-02-19T06:40:55.940Z,11.53
2023-02-19T06:43:23.581Z,10.19
2023-02-19T06:45:52.817Z,9.61
2023-02-19T06:48:20.466Z,9.78
2023-02-19T06:50:48.117Z,10.36
2023-02-19T06:53:15.777Z,10.58
2023-02-19T06:55:44.786Z,11.31
2023-02-19T06:58:12.433Z,11.91
2023-02-19T07:00:40.051Z,11.97
2023-02-19T07:03:07.690Z,10.59
2023-02-19T07:05:35.273Z,11.05
2023-02-19T07:08:02.951Z,9.78
2023-02-19T07:10:30.561Z,12.01
2023-02-19T07:12:59.550Z,10.97
2023-02-19T07:15:27.197Z,11.39
2023-02-19T07:17:54.730Z,10.99
2023-02-19T07:20:22.319Z,10.68
2023-02-19T07:22:50.117Z,11.96
2023-02-19T07:25:17.820Z,11.62
2023-02-19T07:27:45.509Z,12.17
2023-02-19T07:30:14.751Z,11.78
2023-02-19T07:32:42.458Z,13.12
2023-02-19T07:35:10.126Z,11.64
2023-02-19T07:37:37.792Z,11.61
2023-02-19T07:40:06.194Z,10.00
2023-02-19T07:42:33.771Z,10.44
2023-02-19T07:45:01.419Z,10.25
2023-02-19T07:47:30.960Z,11.65
2023-02-19T07:49:58.631Z,12.08
2023-02-19T07:52:26.292Z,10.39
2023-02-19T07:54:53.911Z,10.66
2023-02-19T07:57:21.562Z,10.38
2023-02-19T07:59:49.178Z,11.74
2023-02-19T08:02:34.387Z,9.36
2023-02-19T08:05:03.493Z,11.15
2023-02-19T08:07:34.132Z,10.32
2023-02-19T08:10:15.784Z,9.78
2023-02-19T08:13:01.110Z,9.52
2023-02-19T08:15:28.769Z,10.98
2023-02-19T08:17:56.302Z,11.76
2023-02-19T08:20:25.351Z,10.52
2023-02-19T08:22:52.949Z,11.51
2023-02-19T08:25:20.593Z,9.19
2023-02-19T08:27:48.207Z,9.00
2023-02-19T08:30:15.942Z,10.70
2023-02-19T08:32:43.570Z,9.46
2023-02-19T08:35:11.215Z,11.20
2023-02-19T08:37:40.259Z,11.13
2023-02-19T08:40:08.089Z,9.41
2023-02-19T08:42:35.719Z,10.61
2023-02-19T08:45:03.709Z,8.19
2023-02-19T08:47:31.317Z,8.55
2023-02-19T08:49:59.029Z,9.59
2023-02-19T08:52:26.624Z,8.97
2023-02-19T08:54:55.651Z,9.51
2023-02-19T08:57:23.382Z,10.56
2023-02-19T08:59:51.032Z,10.88
2023-02-19T09:02:18.694Z,11.56
2023-02-19T09:04:46.306Z,10.38
2023-02-19T09:07:13.925Z,10.76
2023-02-19T09:09:41.592Z,12.78
2023-02-19T09:12:11.679Z,9.36
2023-02-19T09:14:39.629Z,9.69
2023-02-19T09:17:07.835Z,10.13
2023-02-19T09:19:35.910Z,13.45
2023-02-19T09:22:03.935Z,10.23
2023-02-19T09:24:31.789Z,11.07
2023-02-19T09:26:59.408Z,10.93
2023-02-19T09:29:28.947Z,10.48
2023-02-19T09:31:57.139Z,8.88
2023-02-19T09:34:24.819Z,9.28
2023-02-19T09:36:52.485Z,9.96
2023-02-19T09:39:20.203Z,10.53
2023-02-19T09:41:48.928Z,10.21
2023-02-19T09:44:21.753Z,10.62
2023-02-19T09:46:51.326Z,13.48
2023-02-19T09:49:21.116Z,12.82
2023-02-19T09:51:49.691Z,13.60
2023-02-19T09:54:19.139Z,12.10
2023-02-19T09:56:46.783Z,12.78
2023-02-19T09:59:15.871Z,11.40
2023-02-19T10:01:43.512Z,12.91
2023-02-19T10:04:12.658Z,9.40
2023-02-19T10:06:40.320Z,10.18
2023-02-19T10:09:14.394Z,9.91
2023-02-19T10:11:42.025Z,10.40
2023-02-19T10:14:11.968Z,9.59
2023-02-19T10:16:41.410Z,10.76
2023-02-19T10:19:12.017Z,10.31
2023-02-19T10:21:39.678Z,10.65
2023-02-19T10:24:07.488Z,11.08
2023-02-19T10:26:36.781Z,9.93
2023-02-19T10:29:05.017Z,12.04
2023-02-19T10:31:33.256Z,11.00
2023-02-19T10:34:01.957Z,10.25
2023-02-19T10:36:32.266Z,11.16
2023-02-19T10:39:00.550Z,10.94
2023-02-19T10:41:28.303Z,12.79
2023-02-19T10:43:56.785Z,11.63
2023-02-19T10:46:25.084Z,12.50
2023-02-19T10:48:53.430Z,12.30
2023-02-19T10:51:22.483Z,11.85
2023-02-19T10:53:52.379Z,11.57
2023-02-19T10:56:24.164Z,12.81
2023-02-19T10:58:51.961Z,12.76
2023-02-19T11:01:20.544Z,10.10
2023-02-19T11:03:48.644Z,11.84
2023-02-19T11:06:16.735Z,11.39
2023-02-19T11:08:48.853Z,11.92
2023-02-19T11:11:24.869Z,12.64
2023-02-19T11:13:52.523Z,11.09
2023-02-19T11:16:20.257Z,12.73
2023-02-19T11:18:56.882Z,10.20
2023-02-19T11:21:28.101Z,9.62
2023-02-19T11:23:55.728Z,12.25
2023-02-19T11:26:25.452Z,13.94
2023-02-19T11:28:56.639Z,13.38
2023-02-19T11:31:27.006Z,12.46
2023-02-19T11:33:55.750Z,11.94
2023-02-19T11:36:30.977Z,10.97
2023-02-19T11:38:59.132Z,12.78
2023-02-19T11:41:35.688Z,10.48
2023-02-19T11:44:07.271Z,10.87
2023-02-19T11:46:36.301Z,11.94
2023-02-19T11:49:06.361Z,11.61
2023-02-19T11:51:36.460Z,12.68
2023-02-19T11:54:07.415Z,11.98
2023-02-19T11:56:37.224Z,11.22
2023-02-19T11:59:06.008Z,11.88
2023-02-19T12:01:44.488Z,13.02
2023-02-19T12:04:30.662Z,13.94
2023-02-19T12:07:00.767Z,14.74
2023-02-19T12:09:32.065Z,13.59
2023-02-19T12:12:11.270Z,13.77
2023-02-19T12:14:56.929Z,13.81
2023-02-19T12:17:31.539Z,12.62
2023-02-19T12:20:02.062Z,13.91
2023-02-19T12:22:30.162Z,13.10
2023-02-19T12:25:16.356Z,14.63
2023-02-19T12:27:48.599Z,14.25
2023-02-19T12:30:20.562Z,12.36
2023-02-19T12:32:55.600Z,11.17
2023-02-19T12:35:43.883Z,11.96
2023-02-19T12:38:15.623Z,10.66
2023-02-19T12:40:46.467Z,12.25
2023-02-19T12:43:16.329Z,12.10
2023-02-19T12:45:45.108Z,12.77
2023-02-19T12:48:14.479Z,11.86
2023-02-19T12:50:42.126Z,11.43
2023-02-19T12:53:18.190Z,11.15
2023-02-19T12:55:45.922Z,11.53
2023-02-19T12:58:16.664Z,10.38
2023-02-19T13:00:46.085Z,14.12
2023-02-19T13:03:16.551Z,12.85
2023-02-19T13:05:45.338Z,12.90
2023-02-19T13:08:14.592Z,13.98
2023-02-19T13:10:43.409Z,15.43
2023-02-19T13:13:11.459Z,15.02
2023-02-19T13:15:42.194Z,16.09
2023-02-19T13:18:17.607Z,15.79
2023-02-19T13:20:46.557Z,16.92
2023-02-19T13:23:32.309Z,17.40
2023-02-19T13:26:09.473Z,12.06
2023-02-19T13:28:43.267Z,10.83
2023-02-19T13:31:16.706Z,10.93
2023-02-19T13:33:48.480Z,13.28
2023-02-19T13:36:16.700Z,13.53
2023-02-19T13:38:44.847Z,13.85
2023-02-19T13:41:23.443Z,13.16
2023-02-19T13:43:55.415Z,12.59
2023-02-19T13:46:23.160Z,12.16
2023-02-19T13:48:52.129Z,12.49
2023-02-19T13:51:38.322Z,11.51
2023-02-19T13:54:14.513Z,12.32
2023-02-19T13:56:42.238Z,11.14
2023-02-19T13:59:26.445Z,12.82
2023-02-19T14:02:12.362Z,14.44
2023-02-19T14:04:50.205Z,15.42
2023-02-19T14:07:21.247Z,16.15
2023-02-19T14:09:49.017Z,15.25
2023-02-19T14:12:20.438Z,13.12
2023-02-19T14:14:48.202Z,12.66
2023-02-19T14:17:26.175Z,15.56
2023-02-19T14:19:56.354Z,14.58
2023-02-19T14:22:42.702Z,14.63
2023-02-19T14:25:14.795Z,12.98
2023-02-19T14:27:42.443Z,14.73
2023-02-19T14:30:10.676Z,17.12
2023-02-19T14:32:39.722Z,14.77
2023-02-19T14:35:18.001Z,13.33
2023-02-19T14:37:45.684Z,12.19
2023-02-19T14:40:13.566Z,11.05
2023-02-19T14:42:41.505Z,9.83
2023-02-19T14:45:09.579Z,10.23
2023-02-19T14:47:37.266Z,10.94
2023-02-19T14:50:06.529Z,11.57
2023-02-19T14:52:37.087Z,12.78
2023-02-19T14:55:05.144Z,12.28
2023-02-19T14:57:33.805Z,12.18
2023-02-19T15:00:01.883Z,10.71
2023-02-19T15:02:30.404Z,10.55
2023-02-19T15:04:58.117Z,12.85
2023-02-19T15:07:26.219Z,13.44
2023-02-19T15:09:56.989Z,12.74
2023-02-19T15:12:26.784Z,14.14
2023-02-19T15:14:55.279Z,12.54
2023-02-19T15:17:23.602Z,12.53
2023-02-19T15:19:51.196Z,13.69
2023-02-19T15:22:20.185Z,11.70
2023-02-19T15:24:48.755Z,12.34
2023-02-19T15:27:19.047Z,12.19
2023-02-19T15:29:46.897Z,12.42
2023-02-19T15:32:17.159Z,14.70
2023-02-19T15:34:46.960Z,15.41
2023-02-19T15:37:14.595Z,17.72
2023-02-19T15:39:42.879Z,14.71
2023-02-19T15:42:11.098Z,13.52
2023-02-19T15:44:42.159Z,12.99
2023-02-19T15:47:12.472Z,13.13
2023-02-19T15:49:42.378Z,13.02
2023-02-19T15:52:10.833Z,13.87
2023-02-19T15:54:40.607Z,13.27
2023-02-19T15:57:08.506Z,13.87
2023-02-19T15:59:37.506Z,11.75
2023-02-19T16:02:06.508Z,10.94
2023-02-19T16:04:34.952Z,11.04
2023-02-19T16:07:03.636Z,11.34
2023-02-19T16:09:32.115Z,11.71
2023-02-19T16:12:00.120Z,11.06
2023-02-19T16:14:31.400Z,13.07
2023-02-19T16:16:59.553Z,10.77
2023-02-19T16:19:29.034Z,11.68
2023-02-19T16:21:56.733Z,12.89
2023-02-19T16:24:27.678Z,12.07
2023-02-19T16:26:55.383Z,11.25
2023-02-19T16:29:23.637Z,13.61
2023-02-19T16:31:52.001Z,13.66
2023-02-19T16:34:20.190Z,13.49
2023-02-19T16:36:49.325Z,12.84
2023-02-19T16:39:20.747Z,14.35
2023-02-19T16:42:19.261Z,13.57
2023-02-19T16:44:47.504Z,13.69
2023-02-19T16:47:24.457Z,13.60
2023-02-19T16:49:52.162Z,12.38
2023-02-19T16:52:21.162Z,12.95
2023-02-19T16:54:50.427Z,12.15
2023-02-19T16:57:18.043Z,12.76
2023-02-19T16:59:45.690Z,13.19
2023-02-19T17:02:16.102Z,13.00
2023-02-19T17:04:43.753Z,13.23
2023-02-19T17:07:12.749Z,13.37
2023-02-19T17:09:41.817Z,12.96
2023-02-19T17:12:11.362Z,13.10
2023-02-19T17:14:39.306Z,12.81
2023-02-19T17:17:07.088Z,13.49
2023-02-19T17:19:34.839Z,13.87
2023-02-19T17:22:02.636Z,13.76
2023-02-19T17:24:30.391Z,13.82
2023-02-19T17:26:59.585Z,13.58
2023-02-19T17:29:28.554Z,13.87
2023-02-19T17:31:56.298Z,14.24
2023-02-19T17:34:23.988Z,13.80
2023-02-19T17:36:52.006Z,14.00
2023-02-19T17:39:19.972Z,14.27
2023-02-19T17:41:47.569Z,14.28
2023-02-19T17:44:16.843Z,13.97
2023-02-19T17:46:47.413Z,14.07
2023-02-19T17:49:15.202Z,13.88
2023-02-19T17:51:42.910Z,13.49
2023-02-19T17:54:10.588Z,13.55
2023-02-19T17:56:43.100Z,13.07
2023-02-19T17:59:11.100Z,13.04
2023-02-19T18:01:40.262Z,12.74
2023-02-19T18:04:10.405Z,13.11
2023-02-19T18:06:38.056Z,12.72
2023-02-19T18:09:05.830Z,13.14
2023-02-19T18:11:33.434Z,13.11
2023-02-19T18:14:01.122Z,13.10
2023-02-19T18:16:28.895Z,13.31
2023-02-19T18:19:02.258Z,13.01
2023-02-19T18:21:29.885Z,12.80
2023-02-19T18:23:57.629Z,12.74
2023-02-19T18:26:27.809Z,12.61
2023-02-19T18:28:55.447Z,13.56
2023-02-19T18:31:23.157Z,13.84
2023-02-19T18:33:50.925Z,13.72
2023-02-19T18:36:19.971Z,13.33
2023-02-19T18:38:47.616Z,13.43
2023-02-19T18:41:19.754Z,13.17
2023-02-19T18:43:47.831Z,13.36
2023-02-19T18:46:15.758Z,13.39
2023-02-19T18:48:43.413Z,13.01
2023-02-19T18:51:11.589Z,13.68
2023-02-19T18:53:40.859Z,13.27
2023-02-19T18:56:09.100Z,13.74
2023-02-19T18:58:36.812Z,13.32
2023-02-19T19:01:04.564Z,13.11
2023-02-19T19:03:32.267Z,13.14
2023-02-19T19:06:00.034Z,12.54
2023-02-19T19:08:29.751Z,12.78
2023-02-19T19:10:59.746Z,13.13
2023-02-19T19:13:27.358Z,12.57
2023-02-19T19:15:55.081Z,13.08
2023-02-19T19:18:22.746Z,13.03
2023-02-19T19:20:50.502Z,12.67
2023-02-19T19:23:18.078Z,12.07
2023-02-19T19:25:45.734Z,12.54
2023-02-19T19:28:14.740Z,12.58
2023-02-19T19:30:42.564Z,12.22
2023-02-19T19:33:12.012Z,12.69
2023-02-19T19:35:39.816Z,13.16
2023-02-19T19:38:07.492Z,12.08
2023-02-19T19:40:35.265Z,11.86
2023-02-19T19:43:02.932Z,12.80
2023-02-19T19:45:31.955Z,12.58
2023-02-19T19:47:59.672Z,12.80
2023-02-19T19:50:27.372Z,12.89
2023-02-19T19:52:55.055Z,13.04
2023-02-19T19:55:22.910Z,13.08
2023-02-19T19:57:50.548Z,12.11
2023-02-19T20:00:18.981Z,11.85
2023-02-19T20:02:48.008Z,10.54
2023-02-19T20:05:16.823Z,11.95
2023-02-19T20:07:44.594Z,12.09
2023-02-19T20:10:13.032Z,11.72
2023-02-19T20:12:40.792Z,12.16
2023-02-19T20:15:09.164Z,12.08
2023-02-19T20:17:36.880Z,12.14
2023-02-19T20:20:06.687Z,12.05
2023-02-19T20:22:36.332Z,11.57
2023-02-19T20:25:04.084Z,11.43
2023-02-19T20:27:31.919Z,11.51
2023-02-19T20:29:59.620Z,11.00
2023-02-19T20:32:27.261Z,10.55
2023-02-19T20:34:54.917Z,10.83
2023-02-19T20:37:24.035Z,11.70
2023-02-19T20:39:51.769Z,11.75
2023-02-19T20:42:19.940Z,10.85
2023-02-19T20:44:47.793Z,10.76
2023-02-19T20:47:15.446Z,11.27
2023-02-19T20:49:44.896Z,11.73
2023-02-19T20:52:12.638Z,11.49
2023-02-19T20:54:42.598Z,11.83
2023-02-19T20:57:10.274Z,10.90
2023-02-19T20:59:38.754Z,11.56
2023-02-19T21:02:07.181Z,12.32
2023-02-19T21:04:34.926Z,12.48
2023-02-19T21:07:02.588Z,11.83
2023-02-19T21:09:30.304Z,12.12
2023-02-19T21:11:59.952Z,11.80
2023-02-19T21:14:27.812Z,11.90
2023-02-19T21:16:55.491Z,12.16
2023-02-19T21:19:23.148Z,11.64
2023-02-19T21:21:50.926Z,11.35
2023-02-19T21:24:18.602Z,11.74
2023-02-19T21:26:46.274Z,11.74
2023-02-19T21:29:16.989Z,12.06
2023-02-19T21:31:45.384Z,12.04
2023-02-19T21:34:14.354Z,11.66
2023-02-19T21:36:42.099Z,11.76
2023-02-19T21:39:10.497Z,11.14
2023-02-19T21:41:38.176Z,10.80
2023-02-19T21:44:05.898Z,11.30
2023-02-19T21:46:35.022Z,11.30
2023-02-19T21:49:03.714Z,10.75
2023-02-19T21:51:32.576Z,11.43
2023-02-19T21:54:00.342Z,10.27
2023-02-19T21:56:29.377Z,11.29
2023-02-19T21:58:57.060Z,10.48
2023-02-19T22:01:25.120Z,11.27
2023-02-19T22:03:54.843Z,12.01
2023-02-19T22:06:23.881Z,11.87
2023-02-19T22:08:51.538Z,11.87
2023-02-19T22:11:19.197Z,11.84
2023-02-19T22:13:46.953Z,11.53
2023-02-19T22:16:14.885Z,11.09
2023-02-19T22:18:46.793Z,10.59
2023-02-19T22:21:16.323Z,11.38
2023-02-19T22:23:44.627Z,10.85
2023-02-19T22:26:17.789Z,10.98
2023-02-19T22:28:45.853Z,10.79
2023-02-19T22:31:13.567Z,11.18
2023-02-19T22:33:41.395Z,11.34
2023-02-19T22:36:14.472Z,11.24
2023-02-19T22:38:43.549Z,11.61
2023-02-19T22:41:11.418Z,10.76
2023-02-19T22:43:39.046Z,11.00
2023-02-19T22:46:09.797Z,11.05
2023-02-19T22:48:37.519Z,11.75
2023-02-19T22:51:05.281Z,11.85
2023-02-19T22:53:32.940Z,11.00
2023-02-19T22:56:01.960Z,10.20
2023-02-19T22:58:29.569Z,10.65
2023-02-19T23:00:57.287Z,10.50
2023-02-19T23:03:24.976Z,11.25
2023-02-19T23:06:31.111Z,10.45
2023-02-19T23:08:59.257Z,10.78
2023-02-19T23:11:29.648Z,9.91
2023-02-19T23:13:57.441Z,10.19
2023-02-19T23:16:25.366Z,10.87
2023-02-19T23:18:53.082Z,11.26
2023-02-19T23:21:20.976Z,11.29
2023-02-19T23:23:48.693Z,11.21
2023-02-19T23:26:16.683Z,11.29
2023-02-19T23:28:47.062Z,10.30
2023-02-19T23:31:14.961Z,10.91
2023-02-19T23:33:43.138Z,11.01
2023-02-19T23:36:11.356Z,10.75
2023-02-19T23:38:39.198Z,10.35
2023-02-19T23:41:09.741Z,10.25
2023-02-19T23:43:37.506Z,10.09
2023-02-19T23:46:06.639Z,9.74
2023-02-19T23:48:34.347Z,10.02
2023-02-19T23:51:02.032Z,10.26
2023-02-19T23:53:29.746Z,10.88
2023-02-19T23:55:57.389Z,10.52
2023-02-19T23:58:25.026Z,10.69
